Time;durP1;ratioP1;P1;durP2;ratioP2;P2;SDS_P1;SDS_P2;PMS_P1;PMS_P2;Temp;Humidity;BMP_temperature;BMP_pressure;BME280_temperature;BME280_humidity;BME280_pressure;Samples;Min_cycle;Max_cycle;Signal;HPM_P1;HPM_P2
2022/04/10 04:31:31;;;;;;;;;11.25;10.00;;;;;7.89;54.75;101702.19;5049803;27;46079;-71
2022/04/10 04:33:56;;;;;;;;;15.25;12.25;;;;;7.89;54.81;101712.84;5034121;28;45326;-71
2022/04/10 04:36:22;;;;;;;;;13.75;9.75;;;;;7.83;54.97;101704.94;5034445;28;45376;-72
2022/04/10 04:38:47;;;;;;;;;12.00;10.00;;;;;7.79;55.33;101711.25;5034289;28;45463;-72
2022/04/10 04:41:12;;;;;;;;;13.25;11.00;;;;;7.79;55.15;101715.72;5034150;28;45376;-72
2022/04/10 04:43:38;;;;;;;;;10.00;9.25;;;;;7.80;55.18;101714.81;5034431;28;45409;-71
2022/04/10 04:46:03;;;;;;;;;12.00;12.00;;;;;7.81;55.44;101713.91;5016141;28;45316;-70
2022/04/10 04:48:28;;;;;;;;;11.25;8.75;;;;;7.86;54.95;101725.38;5033721;28;45474;-71
2022/04/10 04:50:54;;;;;;;;;8.75;8.75;;;;;7.90;54.70;101727.09;5034008;28;45359;-72
2022/04/10 04:53:19;;;;;;;;;15.75;12.00;;;;;7.90;54.58;101724.41;5034212;28;45225;-71
2022/04/10 04:55:44;;;;;;;;;11.25;7.25;;;;;7.95;54.63;101741.22;5034099;28;45367;-70
2022/04/10 04:58:10;;;;;;;;;10.50;7.25;;;;;7.94;54.82;101737.66;5033974;28;45566;-71
2022/04/10 05:00:35;;;;;;;;;12.75;11.00;;;;;7.94;54.59;101743.00;5033766;28;45503;-72
2022/04/10 05:03:00;;;;;;;;;15.75;9.25;;;;;7.80;55.02;101731.72;5015728;28;46015;-71
2022/04/10 05:05:26;;;;;;;;;11.25;11.00;;;;;7.84;55.27;101736.06;5034037;28;45326;-72
2022/04/10 05:07:51;;;;;;;;;12.00;9.50;;;;;7.82;55.33;101745.03;5033762;28;45401;-71
2022/04/10 05:10:17;;;;;;;;;9.50;9.50;;;;;7.79;55.69;101739.75;5033704;28;46193;-72
2022/04/10 05:12:42;;;;;;;;;14.00;11.25;;;;;7.71;55.52;101734.56;5034089;28;45515;-71
2022/04/10 05:15:08;;;;;;;;;11.50;8.00;;;;;7.69;55.92;101739.03;5034110;28;45450;-71
2022/04/10 05:17:34;;;;;;;;;13.75;10.50;;;;;7.63;55.64;101728.47;5034685;28;45743;-72
2022/04/10 05:20:00;;;;;;;;;13.00;9.25;;;;;7.69;55.61;101743.47;5031463;28;45312;-72
2022/04/10 05:22:25;;;;;;;;;15.00;12.00;;;;;7.73;55.03;101742.53;5037225;28;45368;-72
2022/04/10 05:24:50;;;;;;;;;10.75;10.75;;;;;7.76;55.03;101742.47;5037283;28;45422;-70
2022/04/10 05:27:17;;;;;;;;;11.50;10.50;;;;;7.79;55.24;101748.63;5025705;28;45470;-72
2022/04/10 05:29:42;;;;;;;;;11.75;9.00;;;;;7.79;55.13;101745.09;5037068;28;45305;-72
2022/04/10 05:32:08;;;;;;;;;10.75;8.00;;;;;7.82;54.94;101739.69;5053646;28;45385;-71
2022/04/10 05:34:34;;;;;;;;;16.25;11.00;;;;;7.81;55.08;101753.94;5056907;28;45506;-70
2022/04/10 05:36:59;;;;;;;;;10.00;9.00;;;;;7.74;55.19;101741.63;5057080;28;45369;-72
2022/04/10 05:39:24;;;;;;;;;11.25;10.75;;;;;7.84;55.44;101761.88;5056868;28;46121;-72
2022/04/10 05:41:50;;;;;;;;;10.25;8.25;;;;;7.64;55.58;101740.91;5056841;28;45375;-71
2022/04/10 05:44:16;;;;;;;;;16.00;12.00;;;;;7.76;55.60;101770.03;5057208;28;45578;-71
2022/04/10 05:46:41;;;;;;;;;15.75;12.50;;;;;7.76;55.54;101769.16;5057063;28;45553;-71
2022/04/10 05:49:07;;;;;;;;;13.00;12.00;;;;;7.73;55.81;101777.25;5056432;28;45876;-71
2022/04/10 05:51:32;;;;;;;;;14.50;13.00;;;;;7.66;56.03;101771.09;5056609;28;45396;-70
2022/04/10 05:53:58;;;;;;;;;14.25;13.25;;;;;7.65;56.20;101765.81;5056988;28;45306;-71
2022/04/10 05:56:24;;;;;;;;;10.50;9.25;;;;;7.61;56.25;101764.97;5056669;28;45499;-72
2022/04/10 05:58:49;;;;;;;;;12.00;12.00;;;;;7.68;56.38;101777.28;5056795;28;45392;-70
2022/04/10 06:01:15;;;;;;;;;13.00;12.00;;;;;7.60;56.15;101765.88;5056274;28;45464;-72
2022/04/10 06:03:41;;;;;;;;;11.25;11.25;;;;;7.71;56.64;101777.25;5056514;28;45836;-73
2022/04/10 06:06:06;;;;;;;;;11.00;11.00;;;;;7.76;55.89;101772.72;5056432;28;45380;-71
2022/04/10 06:08:31;;;;;;;;;16.50;12.00;;;;;7.80;55.75;101778.88;5056452;28;46382;-71
2022/04/10 06:10:57;;;;;;;;;17.50;13.00;;;;;7.81;55.81;101768.19;5055858;28;45393;-71
2022/04/10 06:13:22;;;;;;;;;12.50;11.50;;;;;7.87;55.45;101789.41;5056593;28;45489;-71
2022/04/10 06:15:48;;;;;;;;;15.00;13.00;;;;;7.92;54.96;101787.53;5056491;28;45213;-71
2022/04/10 06:18:14;;;;;;;;;12.50;11.00;;;;;7.97;55.33;101787.47;5046884;28;46034;-73
2022/04/10 06:20:39;;;;;;;;;14.50;13.00;;;;;7.98;55.32;101778.56;5055541;28;45311;-71
2022/04/10 06:23:04;;;;;;;;;10.25;8.75;;;;;8.05;55.42;101781.97;5071543;28;45543;-71
2022/04/10 06:25:30;;;;;;;;;18.50;13.50;;;;;8.16;54.78;101791.56;5073003;28;45216;-72
2022/04/10 06:27:58;;;;;;;;;21.75;16.75;;;;;8.20;54.98;101781.69;5068624;28;46058;-72
2022/04/10 06:30:23;;;;;;;;;13.75;12.00;;;;;8.22;55.04;101782.53;5075851;28;45407;-71
2022/04/10 06:32:49;;;;;;;;;13.50;12.75;;;;;8.25;55.05;101788.69;5076253;28;45303;-73
2022/04/10 06:35:14;;;;;;;;;22.50;19.25;;;;;8.26;54.56;101785.09;5076239;28;45457;-74
2022/04/10 06:37:40;;;;;;;;;20.50;19.00;;;;;8.26;54.78;101792.22;5076261;28;45855;-73
2022/04/10 06:40:07;;;;;;;;;22.50;16.25;;;;;8.29;55.27;101794.84;5076081;28;45278;-70
2022/04/10 06:42:32;;;;;;;;;24.25;22.00;;;;;8.27;54.93;101772.63;5076410;28;45522;-74
2022/04/10 06:44:57;;;;;;;;;24.75;21.50;;;;;8.32;54.73;101793.06;5076330;28;46058;-74
2022/04/10 06:47:23;;;;;;;;;35.00;24.50;;;;;8.27;54.18;101784.19;5075687;28;45288;-77
2022/04/10 06:49:48;;;;;;;;;28.50;23.75;;;;;8.28;54.47;101790.41;5076512;28;45319;-76
2022/04/10 06:52:14;;;;;;;;;25.00;23.00;;;;;8.25;54.24;101771.81;5081174;28;45216;-75
2022/04/10 06:54:39;;;;;;;;;28.00;28.00;;;;;8.29;54.63;101779.72;5076165;28;45277;-75
2022/04/10 06:57:05;;;;;;;;;26.25;21.75;;;;;8.25;54.55;101779.81;5063377;28;45533;-78
2022/04/10 06:59:30;;;;;;;;;24.25;21.00;;;;;8.20;54.84;101754.97;5076357;28;45374;-77
2022/04/10 07:01:55;;;;;;;;;31.75;25.00;;;;;8.40;54.38;101782.22;5079064;28;45442;-74
2022/04/10 07:04:21;;;;;;;;;29.75;25.75;;;;;8.35;54.25;101760.03;5075608;28;45342;-74
2022/04/10 07:06:50;;;;;;;;;27.75;25.50;;;;;8.51;54.25;101768.59;5076416;28;46099;-74
2022/04/10 07:09:16;;;;;;;;;31.25;27.75;;;;;8.58;54.44;101775.59;5070413;28;45365;-73
2022/04/10 07:11:41;;;;;;;;;31.75;24.50;;;;;8.65;53.66;101774.56;5067963;28;45342;-71
2022/04/10 07:14:06;;;;;;;;;30.00;26.75;;;;;8.72;54.02;101782.41;5075638;28;45481;-72
2022/04/10 07:16:32;;;;;;;;;28.25;25.00;;;;;8.81;53.68;101769.75;5075156;28;45845;-69
2022/04/10 07:18:58;;;;;;;;;31.25;25.50;;;;;8.92;53.50;101773.06;5061138;28;45439;-70
2022/04/10 07:24:07;;;;;;;;;25.00;23.50;;;;;9.13;52.49;101775.22;5075602;28;45520;-71
2022/04/10 07:26:33;;;;;;;;;26.75;20.00;;;;;9.23;51.41;101776.78;5063842;28;46863;-71
2022/04/10 07:28:58;;;;;;;;;23.75;20.00;;;;;9.29;51.06;101771.28;5075695;28;45313;-70
2022/04/10 07:31:23;;;;;;;;;20.25;19.75;;;;;9.37;50.40;101774.63;5074344;28;45347;-71
2022/04/10 07:33:49;;;;;;;;;19.25;16.00;;;;;9.47;50.66;101786.88;5074601;28;45564;-71
2022/04/10 07:36:14;;;;;;;;;16.50;16.50;;;;;9.60;50.17;101783.91;5075308;28;46395;-71
2022/04/10 07:38:41;;;;;;;;;12.25;9.00;;;;;9.68;49.33;101785.47;5075361;28;45425;-71
2022/04/10 07:41:06;;;;;;;;;11.00;10.75;;;;;9.75;49.14;101781.72;5074639;28;45426;-72
2022/04/10 07:43:32;;;;;;;;;8.00;8.00;;;;;9.82;47.58;101790.47;5057002;28;45628;-72
2022/04/10 07:48:42;;;;;;;;;4.75;4.75;;;;;9.94;47.02;101782.13;5075117;28;45399;-73
2022/04/10 07:51:08;;;;;;;;;7.25;5.25;;;;;10.04;46.40;101780.03;5075425;28;45293;-73
2022/04/10 07:53:34;;;;;;;;;9.25;5.00;;;;;10.09;46.36;101776.34;5075288;28;45331;-71
2022/04/10 07:56:00;;;;;;;;;8.00;4.75;;;;;10.24;46.90;101781.31;5074927;28;46218;-70
2022/04/10 07:58:25;;;;;;;;;9.50;8.25;;;;;10.33;46.43;101788.22;5074807;28;45476;-71
2022/04/10 08:00:51;;;;;;;;;9.00;9.00;;;;;10.32;45.83;101777.53;5053510;28;45621;-70
2022/04/10 08:03:17;;;;;;;;;10.00;8.25;;;;;10.41;45.72;101788.88;5071780;28;45401;-72
2022/04/10 08:05:42;;;;;;;;;7.50;7.00;;;;;10.40;45.43;101780.84;5074575;28;45990;-70
2022/04/10 08:08:10;;;;;;;;;4.75;4.50;;;;;10.39;44.59;101763.00;5074984;28;45308;-71
2022/04/10 08:10:37;;;;;;;;;9.50;7.00;;;;;10.45;44.60;101760.19;5074816;28;45307;-71
2022/04/10 08:13:02;;;;;;;;;8.50;7.25;;;;;10.56;44.25;101776.81;5075006;28;45323;-71
2022/04/10 08:15:28;;;;;;;;;8.00;6.00;;;;;10.61;44.01;101782.94;5074601;28;46044;-70
2022/04/10 08:17:54;;;;;;;;;10.00;5.75;;;;;10.63;44.49;101769.50;5061865;28;45413;-71
2022/04/10 08:20:19;;;;;;;;;10.25;6.50;;;;;10.69;44.54;101780.03;5067775;28;45338;-70
2022/04/10 08:22:48;;;;;;;;;9.00;7.50;;;;;10.76;44.59;101773.53;5054396;28;45551;-72
2022/04/10 08:25:16;;;;;;;;;7.75;6.25;;;;;10.79;44.11;101785.06;5054026;28;45498;-72
2022/04/10 08:27:41;;;;;;;;;5.25;4.50;;;;;10.83;43.82;101785.84;5063993;28;45372;-71
2022/04/10 08:30:12;;;;;;;;;4.25;3.00;;;;;10.87;43.93;101783.03;5053969;28;45349;-72
2022/04/10 08:32:38;;;;;;;;;6.50;3.00;;;;;10.78;43.91;101760.97;5053567;28;45414;-71
2022/04/10 08:35:05;;;;;;;;;4.50;4.50;;;;;10.92;43.46;101778.41;5054282;28;45244;-74
2022/04/10 08:37:30;;;;;;;;;7.00;4.25;;;;;10.96;43.97;101780.06;5055098;28;45241;-73
2022/04/10 08:39:56;;;;;;;;;7.25;5.50;;;;;11.04;43.47;101778.94;5054196;28;45397;-74
2022/04/10 08:42:21;;;;;;;;;9.00;8.00;;;;;11.04;43.55;101782.50;5054038;28;45313;-73
2022/04/10 08:44:47;;;;;;;;;4.75;4.75;;;;;11.04;42.32;101790.56;5053886;28;45540;-73
2022/04/10 08:47:20;;;;;;;;;8.00;5.00;;;;;11.00;43.14;101783.53;5053696;28;45384;-72
2022/04/10 08:49:46;;;;;;;;;8.50;6.50;;;;;11.03;42.57;101790.59;5053813;28;45465;-72
2022/04/10 08:52:12;;;;;;;;;4.25;4.25;;;;;11.03;43.40;101788.81;5055418;28;45503;-74
2022/04/10 08:54:40;;;;;;;;;8.25;7.50;;;;;11.02;43.30;101775.44;5057596;28;45582;-72
2022/04/10 08:57:06;;;;;;;;;7.00;7.00;;;;;11.05;43.40;101780.72;5057302;28;45294;-74
2022/04/10 08:59:32;;;;;;;;;9.75;7.50;;;;;11.12;43.70;101784.97;5057518;28;45474;-74
2022/04/10 09:01:58;;;;;;;;;6.25;5.00;;;;;11.18;43.00;101785.63;5056785;28;45456;-71
2022/04/10 09:04:23;;;;;;;;;10.75;8.25;;;;;11.24;43.19;101788.09;5057170;28;46045;-72
2022/04/10 09:07:02;;;;;;;;;7.50;7.00;;;;;11.31;43.79;101789.66;5062716;28;45431;-74
2022/04/10 09:09:29;;;;;;;;;10.25;5.00;;;;;11.37;43.84;101792.19;5044426;28;45259;-71
2022/04/10 09:11:54;;;;;;;;;8.25;6.75;;;;;11.38;43.39;101780.50;5042403;28;45634;-69
2022/04/10 09:14:27;;;;;;;;;7.75;7.75;;;;;11.44;43.43;101787.47;5060525;28;46054;-70
2022/04/10 09:17:29;;;;;;;;;9.00;7.50;;;;;11.45;43.29;101783.88;5063312;28;45535;-69
2022/04/10 09:19:56;;;;;;;;;8.50;5.00;;;;;11.47;43.26;101784.69;4988624;28;45324;-68
2022/04/10 09:22:38;;;;;;;;;5.75;5.25;;;;;11.48;42.91;101777.53;5026688;28;46382;-71
2022/04/10 09:25:23;;;;;;;;;10.50;6.50;;;;;11.44;42.97;101782.09;5048662;28;46254;-69
2022/04/10 09:27:50;;;;;;;;;5.25;5.00;;;;;11.43;42.24;101780.34;5047968;28;45372;-72
2022/04/10 09:30:18;;;;;;;;;7.25;3.75;;;;;11.47;41.79;101782.03;5044334;28;45291;-71
2022/04/10 09:32:45;;;;;;;;;7.00;5.50;;;;;11.43;42.85;101784.84;5077115;28;45433;-72
2022/04/10 09:35:16;;;;;;;;;9.00;8.00;;;;;11.44;42.02;101778.53;5077258;28;47120;-70
2022/04/10 09:38:01;;;;;;;;;4.00;4.00;;;;;11.24;41.71;101776.50;5077529;28;45470;-70
2022/04/10 09:40:31;;;;;;;;;6.00;4.75;;;;;11.17;42.74;101786.56;5073415;28;45240;-70
2022/04/10 09:43:01;;;;;;;;;11.00;7.50;;;;;11.19;42.96;101786.50;5056591;28;45509;-70
2022/04/10 09:45:31;;;;;;;;;5.50;5.00;;;;;11.20;42.26;101786.47;5056847;28;45410;-71
2022/04/10 09:47:57;;;;;;;;;10.75;4.75;;;;;11.17;42.24;101783.88;5056201;28;45404;-70
2022/04/10 09:50:31;;;;;;;;;7.00;7.00;;;;;11.22;42.73;101775.69;5057062;28;45393;-64
2022/04/10 09:52:57;;;;;;;;;9.00;6.25;;;;;11.31;43.00;101780.75;5056257;28;45356;-71
2022/04/10 09:55:35;;;;;;;;;6.50;6.50;;;;;11.38;42.57;101779.63;5038760;28;46244;-69
2022/04/10 09:58:05;;;;;;;;;9.00;5.75;;;;;11.38;41.49;101771.56;5056534;28;45360;-69
2022/04/10 10:00:30;;;;;;;;;6.50;6.50;;;;;11.36;42.22;101762.69;5056952;28;45351;-71
2022/04/10 10:02:57;;;;;;;;;7.25;5.50;;;;;11.41;42.51;101758.03;5055760;28;45486;-71
2022/04/10 10:05:23;;;;;;;;;5.00;5.00;;;;;11.61;42.36;101776.16;5056334;28;45609;-70
2022/04/10 10:07:49;;;;;;;;;9.50;6.50;;;;;11.68;41.98;101770.53;5056674;28;45545;-70
2022/04/10 10:10:19;;;;;;;;;8.00;8.00;;;;;11.74;41.58;101767.66;5056685;28;45242;-70
2022/04/10 10:12:46;;;;;;;;;6.00;5.00;;;;;11.79;41.96;101764.84;5056605;28;45351;-70
2022/04/10 10:15:12;;;;;;;;;3.00;3.00;;;;;11.85;40.68;101756.56;5056466;28;45437;-70
2022/04/10 10:17:37;;;;;;;;;6.50;5.25;;;;;11.93;41.18;101753.59;5056011;28;45578;-71
2022/04/10 10:20:05;;;;;;;;;6.00;6.00;;;;;11.95;40.22;101741.00;5069722;28;45482;-70
2022/04/10 10:22:30;;;;;;;;;7.25;7.25;;;;;12.06;40.18;101753.13;5057188;28;45363;-71
2022/04/10 10:25:09;;;;;;;;;6.50;4.00;;;;;12.03;40.24;101731.72;5056765;28;46414;-72
2022/04/10 10:27:56;;;;;;;;;6.00;6.00;;;;;12.16;41.21;101752.78;5045556;28;45341;-68
2022/04/10 10:30:29;;;;;;;;;7.75;6.00;;;;;12.17;40.31;101747.34;5056200;28;45314;-72
2022/04/10 10:33:13;;;;;;;;;6.25;5.50;;;;;12.24;39.93;101754.28;5055698;28;45356;-72
2022/04/10 10:35:42;;;;;;;;;7.50;5.00;;;;;12.24;40.49;101748.00;5056100;28;45390;-70
2022/04/10 10:38:30;;;;;;;;;8.00;6.25;;;;;12.30;41.47;101739.72;5055937;28;45316;-70
2022/04/10 10:41:29;;;;;;;;;7.00;5.75;;;;;12.34;41.11;101741.34;5056185;28;45245;-72
2022/04/10 10:43:55;;;;;;;;;4.50;4.50;;;;;12.27;39.64;101735.31;5056348;28;45419;-74
2022/04/10 10:46:28;;;;;;;;;6.75;6.00;;;;;12.24;39.53;101734.56;5055858;28;45385;-70
2022/04/10 10:49:14;;;;;;;;;7.00;5.00;;;;;12.35;40.45;101735.03;5055764;28;45356;-72
2022/04/10 10:51:42;;;;;;;;;5.50;5.00;;;;;12.43;39.59;101738.31;5056196;28;45348;-71
2022/04/10 10:54:11;;;;;;;;;7.25;5.25;;;;;12.41;38.89;101727.63;5056395;28;45659;-73
2022/04/10 10:56:39;;;;;;;;;5.25;5.25;;;;;12.51;39.09;101730.81;5055838;28;46329;-71
2022/04/10 10:59:23;;;;;;;;;8.00;7.50;;;;;12.55;39.16;101718.16;5056021;28;45429;-71
2022/04/10 11:02:01;;;;;;;;;6.25;6.00;;;;;12.73;40.01;101725.50;5056063;28;45439;-76
2022/04/10 11:04:30;;;;;;;;;5.75;5.75;;;;;12.89;38.95;101732.03;5055602;28;45457;-69
2022/04/10 11:07:29;;;;;;;;;55.33;44.67;;;;;13.03;38.96;101723.38;5060833;28;45509;-67
2022/04/10 11:09:58;;;;;;;;;9.50;5.50;;;;;13.17;37.72;101713.00;5063098;28;45394;-71
2022/04/10 11:12:33;;;;;;;;;7.50;6.25;;;;;13.23;37.50;101713.59;5068292;28;45407;-72
2022/04/10 11:15:11;;;;;;;;;4.50;0.75;;;;;13.21;37.32;101703.81;5055706;28;45383;-73
2022/04/10 11:17:36;;;;;;;;;7.50;5.00;;;;;13.35;38.33;101703.28;5047320;28;46784;-73
2022/04/10 11:20:07;;;;;;;;;12.00;8.50;;;;;13.46;35.38;101701.84;5069129;28;45334;-70
2022/04/10 11:22:39;;;;;;;;;7.75;6.50;;;;;13.55;36.56;101698.78;5055354;28;45406;-72
2022/04/10 11:25:09;;;;;;;;;6.50;6.50;;;;;13.70;36.32;101702.59;5055430;28;45318;-70
2022/04/10 11:27:50;;;;;;;;;6.00;6.00;;;;;13.88;35.71;101692.84;5044304;28;47758;-69
2022/04/10 11:30:24;;;;;;;;;5.75;5.75;;;;;14.00;36.19;101687.78;5055218;28;45565;-69
2022/04/10 11:32:49;;;;;;;;;7.25;6.00;;;;;14.17;36.81;101689.72;5055310;28;45418;-74
2022/04/10 11:35:18;;;;;;;;;5.25;5.25;;;;;14.25;35.38;101673.19;5036869;28;46153;-83
2022/04/10 11:37:47;;;;;;;;;7.00;5.25;;;;;14.52;36.41;101671.06;5053897;28;47405;-75
2022/04/10 11:40:16;;;;;;;;;7.50;6.00;;;;;14.81;34.98;101678.59;5062292;28;45437;-73
2022/04/10 11:42:42;;;;;;;;;6.75;5.25;;;;;14.86;36.23;101643.31;5063527;28;45450;-78
2022/04/10 11:45:09;;;;;;;;;7.25;6.00;;;;;15.20;34.14;101664.97;5054872;28;45256;-71
2022/04/10 11:47:35;;;;;;;;;5.00;5.00;;;;;15.21;31.18;101649.66;5054282;28;46178;-70
2022/04/10 11:50:01;;;;;;;;;6.00;5.00;;;;;15.35;30.84;101645.28;5055057;28;45317;-72
2022/04/10 11:52:26;;;;;;;;;8.75;7.25;;;;;15.38;31.73;101645.13;5053497;28;45377;-73
2022/04/10 11:54:52;;;;;;;;;10.50;8.00;;;;;15.47;31.99;101639.25;5055289;28;45236;-71
2022/04/10 11:57:17;;;;;;;;;8.00;8.00;;;;;15.73;32.41;101642.47;5054863;28;46180;-72
2022/04/10 11:59:43;;;;;;;;;7.00;6.25;;;;;15.86;32.58;101641.72;5052957;28;45359;-70
2022/04/10 12:02:10;;;;;;;;;9.25;6.75;;;;;16.05;32.35;101640.72;5053733;28;45622;-71
2022/04/10 12:04:37;;;;;;;;;6.25;6.25;;;;;16.31;32.40;101639.28;5059647;28;45382;-72
2022/04/10 12:07:13;;;;;;;;;6.25;6.25;;;;;16.62;31.02;101636.63;5057182;28;46094;-72
2022/04/10 12:09:40;;;;;;;;;7.50;7.00;;;;;16.76;29.95;101638.56;5054305;28;45482;-75
2022/04/10 12:12:06;;;;;;;;;7.00;6.00;;;;;16.89;29.30;101631.47;5054655;28;45295;-73
2022/04/10 12:14:31;;;;;;;;;7.50;7.50;;;;;17.34;28.55;101633.31;5055137;28;45250;-71
2022/04/10 12:16:57;;;;;;;;;5.00;5.00;;;;;17.68;28.99;101621.31;5056465;28;46131;-71
2022/04/10 12:19:34;;;;;;;;;4.50;4.50;;;;;18.15;28.78;101619.22;5061470;28;45489;-73
2022/04/10 12:22:02;;;;;;;;;12.50;5.50;;;;;18.46;28.17;101596.38;5056235;28;45426;-74
2022/04/10 12:24:27;;;;;;;;;4.75;4.75;;;;;18.70;25.78;101603.94;5053288;28;45916;-72
2022/04/10 12:26:53;;;;;;;;;7.00;5.00;;;;;18.95;26.07;101605.91;5052948;28;45469;-72
2022/04/10 12:29:20;;;;;;;;;8.75;7.00;;;;;19.16;25.76;101607.16;5054689;28;45378;-72
2022/04/10 12:31:48;;;;;;;;;6.75;6.75;;;;;19.30;26.51;101598.06;5054264;28;46048;-73
2022/04/10 12:34:14;;;;;;;;;8.25;7.50;;;;;19.30;25.45;101593.50;5054251;28;45243;-73
2022/04/10 12:36:50;;;;;;;;;8.25;8.25;;;;;19.28;26.32;101576.41;5054370;28;45902;-73
2022/04/10 12:39:26;;;;;;;;;5.75;5.75;;;;;19.39;25.10;101583.84;5054157;28;45312;-72
2022/04/10 12:42:00;;;;;;;;;7.00;6.75;;;;;19.42;25.25;101581.75;5054353;28;45284;-72
2022/04/10 12:44:25;;;;;;;;;6.75;5.25;;;;;19.43;25.74;101594.38;5054141;28;45475;-74
2022/04/10 12:46:51;;;;;;;;;11.75;6.75;;;;;19.54;26.45;101588.25;5050673;28;46114;-72
2022/04/10 12:49:17;;;;;;;;;5.00;5.00;;;;;19.85;26.10;101579.63;5051199;28;45474;-72
2022/04/10 12:51:54;;;;;;;;;8.25;5.50;;;;;20.46;24.87;101574.34;5054487;28;45327;-73
2022/04/10 12:54:55;;;;;;;;;6.00;5.00;;;;;21.50;24.69;101562.72;5054109;28;45359;-73
2022/04/10 12:57:29;;;;;;;;;10.00;6.00;;;;;22.35;22.17;101555.84;4972264;28;45787;-74
2022/04/10 12:59:55;;;;;;;;;5.50;5.50;;;;;22.85;22.29;101537.09;5042017;28;45397;-74
2022/04/10 13:02:24;;;;;;;;;8.25;5.25;;;;;23.83;21.23;101556.81;5053906;28;45323;-73
2022/04/10 13:04:54;;;;;;;;;6.25;6.25;;;;;24.16;20.25;101545.59;5054332;28;45586;-72
2022/04/10 13:07:20;;;;;;;;;8.25;7.00;;;;;24.72;19.15;101554.16;5053990;28;45275;-73
2022/04/10 13:10:03;;;;;;;;;4.75;4.75;;;;;25.20;19.06;101543.22;5054299;28;45345;-72
2022/04/10 13:12:31;;;;;;;;;4.50;4.50;;;;;25.43;19.16;101534.69;5054264;28;45295;-73
2022/04/10 13:14:56;;;;;;;;;4.75;3.75;;;;;25.32;19.52;101529.34;5052305;28;46259;-72
2022/04/10 13:17:30;;;;;;;;;6.00;5.00;;;;;24.83;19.49;101533.97;5053353;28;45316;-74
2022/04/10 13:20:01;;;;;;;;;6.50;3.75;;;;;24.88;20.22;101539.88;5060198;28;45508;-73
2022/04/10 13:22:27;;;;;;;;;3.75;3.75;;;;;25.53;19.80;101535.50;5054096;28;45232;-73
2022/04/10 13:24:52;;;;;;;;;4.25;4.25;;;;;26.20;18.61;101524.31;5053813;28;45229;-72
2022/04/10 13:27:17;;;;;;;;;6.75;5.00;;;;;27.01;17.67;101525.28;5064580;28;46369;-72
2022/04/10 13:29:43;;;;;;;;;3.50;3.50;;;;;27.75;17.36;101513.81;5054067;28;45248;-73
2022/04/10 13:32:08;;;;;;;;;5.50;5.50;;;;;28.50;16.90;101512.09;5053325;28;45269;-74
2022/04/10 13:34:35;;;;;;;;;4.00;4.00;;;;;29.17;16.46;101520.38;5053877;28;45501;-74
2022/04/10 13:37:00;;;;;;;;;3.50;3.50;;;;;29.73;16.26;101505.63;5054142;28;45375;-73
2022/04/10 13:39:25;;;;;;;;;5.50;5.50;;;;;30.12;15.97;101500.16;5055347;28;45304;-73
2022/04/10 13:41:51;;;;;;;;;4.00;3.00;;;;;30.42;15.94;101496.56;5057576;28;45564;-74
2022/04/10 13:44:17;;;;;;;;;5.25;5.25;;;;;30.99;14.85;101509.19;5057194;28;45332;-75
2022/04/10 13:46:42;;;;;;;;;5.50;4.50;;;;;31.42;15.35;101502.09;5056765;28;47190;-72
2022/04/10 13:49:07;;;;;;;;;5.50;4.00;;;;;31.44;14.17;101488.94;5056897;28;45339;-73
2022/04/10 13:51:33;;;;;;;;;4.25;4.00;;;;;31.46;13.78;101495.16;5057148;28;45631;-74
2022/04/10 13:54:01;;;;;;;;;4.00;4.00;;;;;31.50;14.27;101496.47;5057110;28;45412;-73
2022/04/10 13:56:26;;;;;;;;;3.75;3.00;;;;;31.29;14.30;101477.81;5056764;28;45354;-74
2022/04/10 13:58:51;;;;;;;;;9.00;4.75;;;;;31.53;14.26;101483.13;5056876;28;45593;-73
2022/04/10 14:01:17;;;;;;;;;3.50;3.50;;;;;31.70;14.71;101478.28;5057452;28;45297;-74
2022/04/10 14:03:42;;;;;;;;;5.25;5.25;;;;;31.77;13.81;101483.94;5057121;28;45437;-74
2022/04/10 14:06:07;;;;;;;;;4.00;4.00;;;;;31.87;14.42;101477.03;5056650;28;46185;-74
2022/04/10 14:08:33;;;;;;;;;5.00;5.00;;;;;31.91;14.51;101460.88;5056826;28;45355;-74
2022/04/10 14:11:00;;;;;;;;;5.50;4.00;;;;;32.12;14.42;101480.38;5056790;28;45444;-73
2022/04/10 14:13:25;;;;;;;;;6.00;5.00;;;;;32.15;13.95;101463.34;5056864;28;45436;-73
2022/04/10 14:15:51;;;;;;;;;3.75;3.75;;;;;32.09;14.29;101468.78;5056516;28;45397;-72
2022/04/10 14:18:18;;;;;;;;;4.00;4.00;;;;;32.06;14.49;101474.75;5058743;28;45371;-74
2022/04/10 14:20:43;;;;;;;;;5.00;4.75;;;;;31.97;14.30;101465.66;5070547;28;45539;-72
2022/04/10 14:23:08;;;;;;;;;4.25;3.00;;;;;31.71;14.27;101454.19;5056255;28;45388;-72
2022/04/10 14:25:34;;;;;;;;;4.75;3.00;;;;;31.59;14.63;101462.09;5056530;28;45357;-73
2022/04/10 14:27:59;;;;;;;;;5.00;5.00;;;;;31.44;15.07;101453.75;5056550;28;45693;-74
2022/04/10 14:30:24;;;;;;;;;2.50;2.25;;;;;31.20;14.98;101441.03;5038203;28;45358;-74
2022/04/10 14:32:53;;;;;;;;;3.00;3.00;;;;;30.75;15.31;101450.19;5056151;28;45217;-73
2022/04/10 14:35:18;;;;;;;;;9.50;5.00;;;;;30.40;15.17;101434.16;5056129;28;45410;-73
2022/04/10 14:37:44;;;;;;;;;5.00;5.00;;;;;30.33;15.38;101439.56;5056354;28;45393;-74
2022/04/10 14:40:10;;;;;;;;;5.00;5.00;;;;;30.30;16.05;101445.44;5056378;28;45659;-73
2022/04/10 14:42:35;;;;;;;;;5.75;5.75;;;;;30.12;15.35;101430.16;5056327;28;45433;-73
2022/04/10 14:45:01;;;;;;;;;3.75;3.75;;;;;30.02;15.75;101425.75;5056046;28;46167;-72
2022/04/10 14:47:26;;;;;;;;;6.25;4.25;;;;;30.16;16.08;101435.16;5056229;28;45444;-73
2022/04/10 14:49:51;;;;;;;;;4.50;4.50;;;;;30.16;15.97;101426.88;5056552;28;45438;-73
2022/04/10 14:52:18;;;;;;;;;4.25;3.50;;;;;30.06;15.70;101429.00;5056320;28;45512;-74
2022/04/10 14:54:44;;;;;;;;;3.75;3.75;;;;;30.03;16.32;101412.75;5056104;28;46079;-72
2022/04/10 14:57:09;;;;;;;;;7.00;3.50;;;;;29.86;15.96;101420.22;5055971;28;45311;-74
2022/04/10 14:59:34;;;;;;;;;4.25;4.25;;;;;29.48;15.94;101421.94;5056050;28;45252;-73
2022/04/10 15:02:01;;;;;;;;;4.75;3.75;;;;;29.01;16.76;101415.44;5055553;28;45352;-74
2022/04/10 15:04:27;;;;;;;;;3.75;3.75;;;;;28.44;16.95;101399.69;5055872;28;45514;-72
2022/04/10 15:06:52;;;;;;;;;4.75;4.75;;;;;28.00;17.01;101412.81;5037672;28;45305;-73
2022/04/10 15:09:17;;;;;;;;;4.75;3.00;;;;;27.62;18.38;101418.88;5055940;28;45639;-73
2022/04/10 15:11:43;;;;;;;;;2.75;2.75;;;;;27.29;18.87;101402.13;5055863;28;45636;-74
2022/04/10 15:14:08;;;;;;;;;5.50;3.00;;;;;27.07;18.24;101411.78;5055626;28;46419;-72
2022/04/10 15:16:33;;;;;;;;;5.00;2.50;;;;;26.78;18.97;101396.56;5056464;28;45261;-73
2022/04/10 15:18:59;;;;;;;;;7.50;5.25;;;;;26.55;19.04;101401.69;5054493;28;45379;-73
2022/04/10 15:21:24;;;;;;;;;3.00;3.00;;;;;26.38;19.14;101395.16;5063881;28;45330;-73
2022/04/10 15:23:52;;;;;;;;;4.75;4.00;;;;;26.12;19.01;101391.41;5055355;28;46032;-73
2022/04/10 15:26:17;;;;;;;;;6.50;4.00;;;;;25.76;19.52;101385.00;5055413;28;45398;-72
2022/04/10 15:28:43;;;;;;;;;3.25;3.25;;;;;25.59;19.98;101379.31;5055353;28;45859;-72
2022/04/10 15:31:08;;;;;;;;;3.75;2.75;;;;;25.47;20.10;101382.34;5055463;28;45474;-74
2022/04/10 15:33:33;;;;;;;;;3.00;3.00;;;;;25.35;19.64;101369.84;5054979;28;45996;-73
2022/04/10 15:35:59;;;;;;;;;4.00;4.00;;;;;25.34;20.10;101368.13;5055759;28;45446;-74
2022/04/10 15:38:25;;;;;;;;;5.00;4.00;;;;;25.39;20.57;101366.66;5055586;28;45494;-74
2022/04/10 15:40:50;;;;;;;;;5.25;5.25;;;;;25.50;19.59;101371.09;5055654;28;45454;-74
2022/04/10 15:43:16;;;;;;;;;5.25;5.25;;;;;25.47;19.80;101374.13;5055269;28;45284;-74
2022/04/10 15:45:41;;;;;;;;;4.00;4.00;;;;;25.47;20.03;101377.72;5037556;28;45260;-73
2022/04/10 15:48:10;;;;;;;;;5.00;3.75;;;;;25.38;20.24;101375.03;5055233;28;46073;-74
2022/04/10 15:50:38;;;;;;;;;4.25;3.25;;;;;25.30;20.90;101370.28;5055454;28;45342;-74
2022/04/10 15:53:03;;;;;;;;;4.00;4.00;;;;;25.26;20.51;101369.72;5054336;28;45350;-81
2022/04/10 15:55:29;;;;;;;;;3.75;3.75;;;;;25.32;20.27;101370.16;5055328;28;45315;-79
2022/04/10 15:57:54;;;;;;;;;3.75;3.75;;;;;25.47;20.66;101354.91;5037402;28;45952;-76
2022/04/10 16:00:20;;;;;;;;;4.75;3.75;;;;;25.67;19.82;101352.97;5055467;28;45479;-75
2022/04/10 16:02:47;;;;;;;;;2.50;2.00;;;;;25.80;20.26;101358.94;5053716;28;45252;-75